sensor_id;sensor_type;location;lat;lon;timestamp;P1;durP1;ratioP1;P2;durP2;ratioP2
26780;SDS011;14366;49.184;8.054;2023-09-19T00:00:31;2.00;;;1.70;;
26780;SDS011;14366;49.184;8.054;2023-09-19T00:11:35;3.30;;;1.53;;
26780;SDS011;14366;49.184;8.054;2023-09-19T00:17:11;3.50;;;1.60;;
26780;SDS011;14366;49.184;8.054;2023-09-19T00:27:54;2.60;;;1.60;;
26780;SDS011;14366;49.184;8.054;2023-09-19T00:38:32;3.80;;;1.70;;
26780;SDS011;14366;49.184;8.054;2023-09-19T00:49:12;2.67;;;1.77;;
26780;SDS011;14366;49.184;8.054;2023-09-19T00:54:49;4.43;;;1.70;;
26780;SDS011;14366;49.184;8.054;2023-09-19T01:00:24;3.40;;;1.70;;
26780;SDS011;14366;49.184;8.054;2023-09-19T01:11:08;2.17;;;1.70;;
26780;SDS011;14366;49.184;8.054;2023-09-19T01:21:48;2.60;;;1.73;;
26780;SDS011;14366;49.184;8.054;2023-09-19T01:32:28;4.60;;;1.70;;
26780;SDS011;14366;49.184;8.054;2023-09-19T01:38:00;2.50;;;1.70;;
26780;SDS011;14366;49.184;8.054;2023-09-19T01:43:36;3.55;;;1.80;;
26780;SDS011;14366;49.184;8.054;2023-09-19T02:00:00;5.80;;;1.90;;
26780;SDS011;14366;49.184;8.054;2023-09-19T02:05:34;4.70;;;1.80;;
26780;SDS011;14366;49.184;8.054;2023-09-19T02:11:11;3.43;;;1.83;;
26780;SDS011;14366;49.184;8.054;2023-09-19T02:16:45;3.64;;;1.86;;
26780;SDS011;14366;49.184;8.054;2023-09-19T02:22:24;2.13;;;1.67;;
26780;SDS011;14366;49.184;8.054;2023-09-19T02:27:47;4.00;;;1.80;;
26780;SDS011;14366;49.184;8.054;2023-09-19T02:33:22;3.88;;;1.80;;
26780;SDS011;14366;49.184;8.054;2023-09-19T02:38:43;4.83;;;2.00;;
26780;SDS011;14366;49.184;8.054;2023-09-19T02:44:06;4.27;;;1.77;;
26780;SDS011;14366;49.184;8.054;2023-09-19T02:54:42;4.47;;;2.00;;
26780;SDS011;14366;49.184;8.054;2023-09-19T03:00:06;5.70;;;2.00;;
26780;SDS011;14366;49.184;8.054;2023-09-19T03:10:46;3.10;;;2.00;;
26780;SDS011;14366;49.184;8.054;2023-09-19T03:16:22;3.47;;;2.07;;
26780;SDS011;14366;49.184;8.054;2023-09-19T03:21:54;4.08;;;1.90;;
26780;SDS011;14366;49.184;8.054;2023-09-19T03:27:16;3.73;;;2.20;;
26780;SDS011;14366;49.184;8.054;2023-09-19T03:32:38;3.83;;;2.30;;
26780;SDS011;14366;49.184;8.054;2023-09-19T03:38:09;5.67;;;2.10;;
26780;SDS011;14366;49.184;8.054;2023-09-19T03:43:44;2.67;;;1.90;;
26780;SDS011;14366;49.184;8.054;2023-09-19T03:49:05;7.20;;;2.50;;
26780;SDS011;14366;49.184;8.054;2023-09-19T03:59:42;3.33;;;2.23;;
26780;SDS011;14366;49.184;8.054;2023-09-19T04:10:07;4.60;;;2.00;;
26780;SDS011;14366;49.184;8.054;2023-09-19T04:15:43;7.37;;;2.27;;
26780;SDS011;14366;49.184;8.054;2023-09-19T04:21:04;6.03;;;2.30;;
26780;SDS011;14366;49.184;8.054;2023-09-19T04:26:41;5.33;;;2.17;;
26780;SDS011;14366;49.184;8.054;2023-09-19T04:32:14;7.40;;;2.23;;
26780;SDS011;14366;49.184;8.054;2023-09-19T04:37:36;7.47;;;2.30;;
26780;SDS011;14366;49.184;8.054;2023-09-19T04:43:15;4.03;;;2.23;;
26780;SDS011;14366;49.184;8.054;2023-09-19T04:48:50;4.57;;;2.10;;
26780;SDS011;14366;49.184;8.054;2023-09-19T04:54:11;4.80;;;1.90;;
26780;SDS011;14366;49.184;8.054;2023-09-19T04:59:47;5.20;;;1.93;;
26780;SDS011;14366;49.184;8.054;2023-09-19T05:10:48;4.10;;;2.10;;
26780;SDS011;14366;49.184;8.054;2023-09-19T05:16:10;5.30;;;2.00;;
26780;SDS011;14366;49.184;8.054;2023-09-19T05:21:45;5.13;;;2.13;;
26780;SDS011;14366;49.184;8.054;2023-09-19T05:27:06;7.27;;;2.37;;
26780;SDS011;14366;49.184;8.054;2023-09-19T05:32:30;5.77;;;2.00;;
26780;SDS011;14366;49.184;8.054;2023-09-19T05:38:06;7.40;;;2.60;;
26780;SDS011;14366;49.184;8.054;2023-09-19T05:48:46;4.50;;;2.30;;
26780;SDS011;14366;49.184;8.054;2023-09-19T05:54:19;6.20;;;2.20;;
26780;SDS011;14366;49.184;8.054;2023-09-19T05:59:54;7.30;;;2.00;;
26780;SDS011;14366;49.184;8.054;2023-09-19T06:05:13;5.83;;;2.20;;
26780;SDS011;14366;49.184;8.054;2023-09-19T06:11:03;5.25;;;1.95;;
26780;SDS011;14366;49.184;8.054;2023-09-19T06:21:33;5.53;;;2.00;;
26780;SDS011;14366;49.184;8.054;2023-09-19T06:32:15;3.45;;;1.90;;
26780;SDS011;14366;49.184;8.054;2023-09-19T06:42:38;4.75;;;1.58;;
26780;SDS011;14366;49.184;8.054;2023-09-19T06:48:13;4.28;;;1.70;;
26780;SDS011;14366;49.184;8.054;2023-09-19T06:53:31;4.10;;;1.95;;
26780;SDS011;14366;49.184;8.054;2023-09-19T06:58:53;3.90;;;1.67;;
26780;SDS011;14366;49.184;8.054;2023-09-19T07:04:28;5.20;;;1.73;;
26780;SDS011;14366;49.184;8.054;2023-09-19T07:10:06;3.70;;;1.90;;
26780;SDS011;14366;49.184;8.054;2023-09-19T07:15:27;4.70;;;1.87;;
26780;SDS011;14366;49.184;8.054;2023-09-19T07:20:56;3.93;;;1.60;;
26780;SDS011;14366;49.184;8.054;2023-09-19T07:26:32;8.10;;;1.90;;
26780;SDS011;14366;49.184;8.054;2023-09-19T07:31:57;4.80;;;1.80;;
26780;SDS011;14366;49.184;8.054;2023-09-19T07:37:29;5.50;;;1.80;;
26780;SDS011;14366;49.184;8.054;2023-09-19T07:43:06;3.50;;;1.80;;
26780;SDS011;14366;49.184;8.054;2023-09-19T07:48:27;5.15;;;1.90;;
26780;SDS011;14366;49.184;8.054;2023-09-19T07:54:02;3.10;;;1.70;;
26780;SDS011;14366;49.184;8.054;2023-09-19T07:59:23;3.80;;;1.80;;
26780;SDS011;14366;49.184;8.054;2023-09-19T08:05:00;5.50;;;1.90;;
26780;SDS011;14366;49.184;8.054;2023-09-19T08:10:35;4.97;;;2.00;;
26780;SDS011;14366;49.184;8.054;2023-09-19T08:15:55;4.53;;;2.00;;
26780;SDS011;14366;49.184;8.054;2023-09-19T08:26:21;3.15;;;1.70;;
26780;SDS011;14366;49.184;8.054;2023-09-19T08:31:53;3.70;;;1.70;;
26780;SDS011;14366;49.184;8.054;2023-09-19T08:37:25;4.40;;;1.90;;
26780;SDS011;14366;49.184;8.054;2023-09-19T08:43:03;5.60;;;2.07;;
26780;SDS011;14366;49.184;8.054;2023-09-19T08:48:36;9.20;;;3.00;;
26780;SDS011;14366;49.184;8.054;2023-09-19T08:54:12;4.90;;;2.00;;
26780;SDS011;14366;49.184;8.054;2023-09-19T08:59:48;4.40;;;1.80;;
26780;SDS011;14366;49.184;8.054;2023-09-19T09:05:24;4.90;;;2.20;;
26780;SDS011;14366;49.184;8.054;2023-09-19T09:10:59;5.60;;;2.20;;
26780;SDS011;14366;49.184;8.054;2023-09-19T09:16:36;3.50;;;2.10;;
26780;SDS011;14366;49.184;8.054;2023-09-19T09:22:09;5.80;;;2.10;;
26780;SDS011;14366;49.184;8.054;2023-09-19T09:27:44;6.60;;;2.20;;
26780;SDS011;14366;49.184;8.054;2023-09-19T09:33:26;6.70;;;2.10;;
26780;SDS011;14366;49.184;8.054;2023-09-19T09:38:58;4.33;;;2.10;;
26780;SDS011;14366;49.184;8.054;2023-09-19T09:44:19;5.25;;;2.60;;
26780;SDS011;14366;49.184;8.054;2023-09-19T09:49:56;5.32;;;2.15;;
26780;SDS011;14366;49.184;8.054;2023-09-19T10:01:48;2.70;;;1.70;;
26780;SDS011;14366;49.184;8.054;2023-09-19T10:07:27;4.77;;;2.20;;
26780;SDS011;14366;49.184;8.054;2023-09-19T10:18:06;3.47;;;1.80;;
26780;SDS011;14366;49.184;8.054;2023-09-19T10:23:42;3.53;;;1.90;;
26780;SDS011;14366;49.184;8.054;2023-09-19T10:34:38;5.32;;;1.80;;
26780;SDS011;14366;49.184;8.054;2023-09-19T10:40:30;3.70;;;1.87;;
26780;SDS011;14366;49.184;8.054;2023-09-19T10:51:08;6.74;;;1.90;;
26780;SDS011;14366;49.184;8.054;2023-09-19T10:56:46;3.80;;;1.60;;
26780;SDS011;14366;49.184;8.054;2023-09-19T11:07:28;3.70;;;1.75;;
26780;SDS011;14366;49.184;8.054;2023-09-19T11:24:30;2.30;;;1.20;;
26780;SDS011;14366;49.184;8.054;2023-09-19T11:36:02;3.15;;;1.80;;
26780;SDS011;14366;49.184;8.054;2023-09-19T11:41:37;3.00;;;1.52;;
26780;SDS011;14366;49.184;8.054;2023-09-19T11:47:13;4.25;;;2.08;;
26780;SDS011;14366;49.184;8.054;2023-09-19T11:52:54;5.82;;;1.80;;
26780;SDS011;14366;49.184;8.054;2023-09-19T11:58:31;11.83;;;2.07;;
26780;SDS011;14366;49.184;8.054;2023-09-19T12:04:17;2.95;;;1.50;;
26780;SDS011;14366;49.184;8.054;2023-09-19T12:10:02;2.78;;;1.40;;
26780;SDS011;14366;49.184;8.054;2023-09-19T12:15:29;4.40;;;1.74;;
26780;SDS011;14366;49.184;8.054;2023-09-19T12:21:05;2.80;;;1.60;;
26780;SDS011;14366;49.184;8.054;2023-09-19T12:26:27;3.10;;;1.62;;
26780;SDS011;14366;49.184;8.054;2023-09-19T12:32:06;3.20;;;1.53;;
26780;SDS011;14366;49.184;8.054;2023-09-19T12:48:25;4.20;;;1.60;;
26780;SDS011;14366;49.184;8.054;2023-09-19T12:53:58;3.50;;;1.52;;
26780;SDS011;14366;49.184;8.054;2023-09-19T12:59:32;4.25;;;1.80;;
26780;SDS011;14366;49.184;8.054;2023-09-19T13:05:09;3.83;;;1.70;;
26780;SDS011;14366;49.184;8.054;2023-09-19T13:10:59;3.45;;;1.50;;
26780;SDS011;14366;49.184;8.054;2023-09-19T13:22:42;4.97;;;1.70;;
26780;SDS011;14366;49.184;8.054;2023-09-19T13:28:18;3.30;;;1.73;;
26780;SDS011;14366;49.184;8.054;2023-09-19T13:33:43;2.70;;;1.50;;
26780;SDS011;14366;49.184;8.054;2023-09-19T13:39:19;2.90;;;1.60;;
26780;SDS011;14366;49.184;8.054;2023-09-19T13:50:12;3.87;;;1.80;;
26780;SDS011;14366;49.184;8.054;2023-09-19T13:55:38;2.00;;;1.50;;
26780;SDS011;14366;49.184;8.054;2023-09-19T14:06:48;3.72;;;1.58;;
26780;SDS011;14366;49.184;8.054;2023-09-19T14:12:10;3.00;;;1.50;;
26780;SDS011;14366;49.184;8.054;2023-09-19T14:17:46;4.37;;;1.62;;
26780;SDS011;14366;49.184;8.054;2023-09-19T14:28:10;2.33;;;1.55;;
26780;SDS011;14366;49.184;8.054;2023-09-19T14:33:42;2.13;;;1.50;;
26780;SDS011;14366;49.184;8.054;2023-09-19T14:39:04;2.32;;;1.40;;
26780;SDS011;14366;49.184;8.054;2023-09-19T14:44:41;3.70;;;1.50;;
26780;SDS011;14366;49.184;8.054;2023-09-19T14:50:09;3.47;;;1.52;;
26780;SDS011;14366;49.184;8.054;2023-09-19T14:55:31;2.80;;;1.40;;
26780;SDS011;14366;49.184;8.054;2023-09-19T15:01:08;2.54;;;1.42;;
26780;SDS011;14366;49.184;8.054;2023-09-19T15:06:39;3.22;;;1.55;;
26780;SDS011;14366;49.184;8.054;2023-09-19T15:12:01;1.87;;;1.30;;
26780;SDS011;14366;49.184;8.054;2023-09-19T15:17:21;1.90;;;1.38;;
26780;SDS011;14366;49.184;8.054;2023-09-19T15:22:53;2.53;;;1.40;;
26780;SDS011;14366;49.184;8.054;2023-09-19T15:28:29;3.00;;;1.45;;
26780;SDS011;14366;49.184;8.054;2023-09-19T15:34:06;3.40;;;1.60;;
26780;SDS011;14366;49.184;8.054;2023-09-19T15:39:40;2.25;;;1.45;;
26780;SDS011;14366;49.184;8.054;2023-09-19T15:45:17;3.17;;;1.40;;
26780;SDS011;14366;49.184;8.054;2023-09-19T15:50:54;1.40;;;1.30;;
26780;SDS011;14366;49.184;8.054;2023-09-19T15:56:26;3.08;;;1.42;;
26780;SDS011;14366;49.184;8.054;2023-09-19T16:01:47;6.57;;;1.65;;
26780;SDS011;14366;49.184;8.054;2023-09-19T16:07:10;2.65;;;1.30;;
26780;SDS011;14366;49.184;8.054;2023-09-19T16:12:44;2.70;;;1.25;;
26780;SDS011;14366;49.184;8.054;2023-09-19T16:18:21;2.40;;;1.60;;
26780;SDS011;14366;49.184;8.054;2023-09-19T16:23:45;2.35;;;1.40;;
26780;SDS011;14366;49.184;8.054;2023-09-19T16:29:20;2.50;;;1.30;;
26780;SDS011;14366;49.184;8.054;2023-09-19T16:34:55;2.00;;;1.40;;
26780;SDS011;14366;49.184;8.054;2023-09-19T16:40:35;2.78;;;1.52;;
26780;SDS011;14366;49.184;8.054;2023-09-19T16:46:13;3.42;;;1.30;;
26780;SDS011;14366;49.184;8.054;2023-09-19T16:51:48;5.05;;;1.65;;
26780;SDS011;14366;49.184;8.054;2023-09-19T16:57:25;5.22;;;1.45;;
26780;SDS011;14366;49.184;8.054;2023-09-19T17:02:58;2.50;;;1.25;;
26780;SDS011;14366;49.184;8.054;2023-09-19T17:13:38;2.53;;;1.33;;
26780;SDS011;14366;49.184;8.054;2023-09-19T17:24:17;2.12;;;1.40;;
26780;SDS011;14366;49.184;8.054;2023-09-19T17:34:41;5.45;;;1.50;;
26780;SDS011;14366;49.184;8.054;2023-09-19T17:40:14;2.08;;;1.30;;
26780;SDS011;14366;49.184;8.054;2023-09-19T17:50:40;4.30;;;1.67;;
26780;SDS011;14366;49.184;8.054;2023-09-19T17:56:16;2.28;;;1.50;;
26780;SDS011;14366;49.184;8.054;2023-09-19T18:01:51;3.85;;;1.40;;
26780;SDS011;14366;49.184;8.054;2023-09-19T18:07:30;2.55;;;1.35;;
26780;SDS011;14366;49.184;8.054;2023-09-19T18:13:02;2.90;;;1.50;;
26780;SDS011;14366;49.184;8.054;2023-09-19T18:18:38;2.90;;;1.73;;
26780;SDS011;14366;49.184;8.054;2023-09-19T18:24:15;2.35;;;1.50;;
26780;SDS011;14366;49.184;8.054;2023-09-19T18:29:50;2.10;;;1.35;;
26780;SDS011;14366;49.184;8.054;2023-09-19T18:35:15;2.65;;;1.80;;
26780;SDS011;14366;49.184;8.054;2023-09-19T18:40:51;3.70;;;1.90;;
26780;SDS011;14366;49.184;8.054;2023-09-19T18:46:25;2.75;;;1.80;;
26780;SDS011;14366;49.184;8.054;2023-09-19T19:01:58;2.05;;;1.40;;
26780;SDS011;14366;49.184;8.054;2023-09-19T19:07:30;2.60;;;1.40;;
26780;SDS011;14366;49.184;8.054;2023-09-19T19:12:54;2.20;;;1.10;;
26780;SDS011;14366;49.184;8.054;2023-09-19T19:18:30;8.90;;;1.55;;
26780;SDS011;14366;49.184;8.054;2023-09-19T19:24:11;2.05;;;1.35;;
26780;SDS011;14366;49.184;8.054;2023-09-19T19:29:46;1.87;;;1.20;;
26780;SDS011;14366;49.184;8.054;2023-09-19T19:35:15;2.95;;;1.50;;
26780;SDS011;14366;49.184;8.054;2023-09-19T19:40:41;3.05;;;1.65;;
26780;SDS011;14366;49.184;8.054;2023-09-19T19:46:23;2.47;;;1.42;;
26780;SDS011;14366;49.184;8.054;2023-09-19T19:51:43;2.62;;;1.50;;
26780;SDS011;14366;49.184;8.054;2023-09-19T19:57:22;2.67;;;1.40;;
26780;SDS011;14366;49.184;8.054;2023-09-19T20:02:57;2.06;;;1.28;;
26780;SDS011;14366;49.184;8.054;2023-09-19T20:08:19;4.20;;;1.50;;
26780;SDS011;14366;49.184;8.054;2023-09-19T20:19:00;3.72;;;1.34;;
26780;SDS011;14366;49.184;8.054;2023-09-19T20:24:34;2.30;;;1.50;;
26780;SDS011;14366;49.184;8.054;2023-09-19T20:30:08;2.13;;;1.27;;
26780;SDS011;14366;49.184;8.054;2023-09-19T20:35:42;6.83;;;1.80;;
26780;SDS011;14366;49.184;8.054;2023-09-19T20:41:22;1.70;;;1.20;;
26780;SDS011;14366;49.184;8.054;2023-09-19T20:46:57;4.20;;;1.40;;
26780;SDS011;14366;49.184;8.054;2023-09-19T20:52:20;2.37;;;1.60;;
26780;SDS011;14366;49.184;8.054;2023-09-19T20:57:42;4.68;;;1.40;;
26780;SDS011;14366;49.184;8.054;2023-09-19T21:03:17;3.20;;;1.50;;
26780;SDS011;14366;49.184;8.054;2023-09-19T21:08:52;1.90;;;1.20;;
26780;SDS011;14366;49.184;8.054;2023-09-19T21:19:18;2.00;;;1.30;;
26780;SDS011;14366;49.184;8.054;2023-09-19T21:24:52;2.70;;;1.60;;
26780;SDS011;14366;49.184;8.054;2023-09-19T21:30:28;1.97;;;1.40;;
26780;SDS011;14366;49.184;8.054;2023-09-19T21:36:13;3.30;;;1.40;;
26780;SDS011;14366;49.184;8.054;2023-09-19T21:41:43;3.33;;;1.62;;
26780;SDS011;14366;49.184;8.054;2023-09-19T21:47:18;2.33;;;1.50;;
26780;SDS011;14366;49.184;8.054;2023-09-19T21:52:56;2.27;;;1.50;;
26780;SDS011;14366;49.184;8.054;2023-09-19T21:58:32;3.87;;;1.60;;
26780;SDS011;14366;49.184;8.054;2023-09-19T22:04:07;2.28;;;1.60;;
26780;SDS011;14366;49.184;8.054;2023-09-19T22:09:44;2.60;;;1.50;;
26780;SDS011;14366;49.184;8.054;2023-09-19T22:15:18;4.47;;;1.58;;
26780;SDS011;14366;49.184;8.054;2023-09-19T22:20:41;2.40;;;1.55;;
26780;SDS011;14366;49.184;8.054;2023-09-19T22:26:02;2.13;;;1.47;;
26780;SDS011;14366;49.184;8.054;2023-09-19T22:31:36;2.58;;;1.67;;
26780;SDS011;14366;49.184;8.054;2023-09-19T22:36:58;2.33;;;1.50;;
26780;SDS011;14366;49.184;8.054;2023-09-19T22:42:35;3.46;;;1.54;;
26780;SDS011;14366;49.184;8.054;2023-09-19T22:48:11;2.60;;;1.40;;
26780;SDS011;14366;49.184;8.054;2023-09-19T22:53:47;2.80;;;1.40;;
26780;SDS011;14366;49.184;8.054;2023-09-19T22:59:24;2.43;;;1.40;;
26780;SDS011;14366;49.184;8.054;2023-09-19T23:05:03;3.10;;;1.70;;
26780;SDS011;14366;49.184;8.054;2023-09-19T23:10:38;3.30;;;1.77;;
26780;SDS011;14366;49.184;8.054;2023-09-19T23:16:13;2.34;;;1.52;;
26780;SDS011;14366;49.184;8.054;2023-09-19T23:27:50;3.70;;;1.50;;
26780;SDS011;14366;49.184;8.054;2023-09-19T23:38:33;2.50;;;1.40;;
26780;SDS011;14366;49.184;8.054;2023-09-19T23:44:07;1.50;;;1.40;;
26780;SDS011;14366;49.184;8.054;2023-09-19T23:49:42;2.87;;;1.60;;
